Time;durP1;ratioP1;P1;durP2;ratioP2;P2;SDS_P1;SDS_P2;PMS_P1;PMS_P2;Temp;Humidity;BMP_temperature;BMP_pressure;BME280_temperature;BME280_humidity;BME280_pressure;Samples;Min_cycle;Max_cycle;Signal;HPM_P1;HPM_P2
2023/12/13 00:01:50;;;;;;;158.15;54.38;;;;;;;2.27;100.00;99139.31;4977769;28;20042;-67
2023/12/13 00:04:16;;;;;;;169.93;61.95;;;;;;;2.87;100.00;99217.34;4966181;28;20031;-70
2023/12/13 00:06:41;;;;;;;119.40;52.08;;;;;;;3.04;100.00;99206.28;4957442;28;20033;-70
2023/12/13 00:09:10;;;;;;;120.28;51.72;;;;;;;2.53;100.00;99177.53;4962722;28;20030;-70
2023/12/13 00:11:36;;;;;;;127.18;50.90;;;;;;;2.85;100.00;99198.97;4976878;28;20046;-70
2023/12/13 00:14:01;;;;;;;122.50;54.70;;;;;;;2.94;100.00;99234.84;4975851;28;20035;-70
2023/12/13 00:16:27;;;;;;;155.93;57.70;;;;;;;2.62;100.00;99211.72;4978817;28;20035;-70
2023/12/13 00:18:52;;;;;;;150.63;55.10;;;;;;;2.87;100.00;99238.28;4977957;28;20417;-70
2023/12/13 00:21:18;;;;;;;165.60;55.53;;;;;;;2.81;100.00;99234.97;4978584;28;20085;-70
2023/12/13 00:23:46;;;;;;;152.63;52.20;;;;;;;2.76;100.00;99254.25;4973814;28;20035;-70
2023/12/13 00:26:16;;;;;;;145.00;47.35;;;;;;;2.58;100.00;99257.72;4980422;28;20027;-70
2023/12/13 00:28:42;;;;;;;136.57;51.47;;;;;;;1.99;100.00;99228.06;4977702;28;20039;-70
2023/12/13 00:31:08;;;;;;;121.75;50.38;;;;;;;1.65;100.00;99261.63;4980942;28;20492;-70
2023/12/13 00:33:34;;;;;;;136.98;50.88;;;;;;;1.30;100.00;99274.28;4980851;28;20034;-69
2023/12/13 00:35:59;;;;;;;154.30;57.38;;;;;;;1.71;100.00;99372.66;4978995;28;20057;-71
2023/12/13 00:38:25;;;;;;;154.38;52.20;;;;;;;1.87;100.00;99433.56;4976151;28;20034;-70
2023/12/13 00:40:51;;;;;;;116.65;42.67;;;;;;;1.93;100.00;99446.09;4985984;28;20038;-70
2023/12/13 00:43:17;;;;;;;476.05;68.00;;;;;;;1.74;100.00;99492.88;4959112;28;20508;-70
2023/12/13 00:45:42;;;;;;;356.70;65.97;;;;;;;1.55;100.00;99491.22;4961742;28;20484;-70
2023/12/13 00:48:08;;;;;;;326.65;62.95;;;;;;;1.45;100.00;99504.56;4979951;28;20037;-70
2023/12/13 00:50:34;;;;;;;224.13;56.83;;;;;;;1.32;100.00;99557.13;4976713;28;20485;-70
2023/12/13 00:52:59;;;;;;;290.27;62.95;;;;;;;1.53;100.00;99618.09;4976815;28;20034;-70
2023/12/13 00:55:25;;;;;;;175.23;55.85;;;;;;;1.47;100.00;99685.69;4960721;28;20033;-70
2023/12/13 00:57:51;;;;;;;160.55;54.85;;;;;;;1.75;100.00;99704.97;4962428;28;20034;-70
2023/12/13 01:00:17;;;;;;;126.50;53.00;;;;;;;1.42;100.00;99717.41;4979681;28;20031;-70
2023/12/13 01:02:43;;;;;;;188.98;61.63;;;;;;;2.05;100.00;99863.78;4976770;28;20555;-69
2023/12/13 01:05:09;;;;;;;189.68;60.60;;;;;;;2.26;100.00;99944.06;4954762;28;20031;-70
2023/12/13 01:07:34;;;;;;;197.68;62.85;;;;;;;1.85;100.00;99875.38;4957764;28;20030;-70
2023/12/13 01:10:00;;;;;;;158.82;61.55;;;;;;;2.26;100.00;99966.63;4981020;28;20027;-68
2023/12/13 01:12:26;;;;;;;177.93;65.30;;;;;;;1.82;100.00;99903.78;4979207;28;20404;-70
2023/12/13 01:14:51;;;;;;;199.82;73.05;;;;;;;2.10;100.00;100003.31;4964136;28;20048;-70
2023/12/13 01:17:17;;;;;;;161.00;62.10;;;;;;;1.16;100.00;99881.59;4982566;28;20038;-70
2023/12/13 01:19:42;;;;;;;168.98;64.60;;;;;;;1.96;100.00;100027.47;4975758;28;20031;-70
2023/12/13 01:22:08;;;;;;;206.90;60.83;;;;;;;1.04;100.00;99913.19;4977288;28;20062;-70
2023/12/13 01:24:34;;;;;;;166.23;60.35;;;;;;;1.56;100.00;100028.00;4980007;28;20023;-70
2023/12/13 01:26:59;;;;;;;137.60;58.63;;;;;;;1.31;100.00;99983.50;4978086;28;20023;-69
2023/12/13 01:29:25;;;;;;;141.10;57.22;;;;;;;1.64;100.00;100048.94;4973957;28;20100;-70
2023/12/13 01:31:50;;;;;;;208.35;63.72;;;;;;;1.50;100.00;100035.44;4980497;28;20031;-70
2023/12/13 01:34:16;;;;;;;190.68;60.80;;;;;;;1.40;100.00;100018.66;4980223;28;20038;-70
2023/12/13 01:36:42;;;;;;;240.02;59.35;;;;;;;1.69;100.00;100065.69;4978684;28;20057;-70
2023/12/13 01:39:08;;;;;;;138.20;52.45;;;;;;;1.69;100.00;100077.34;4980355;28;20038;-70
2023/12/13 01:41:33;;;;;;;169.07;52.80;;;;;;;1.34;100.00;100023.59;4984672;28;21773;-71
2023/12/13 01:43:59;;;;;;;191.35;54.47;;;;;;;1.59;100.00;100085.59;4981648;28;20045;-72
2023/12/13 01:46:25;;;;;;;118.50;43.65;;;;;;;1.10;100.00;99986.66;4986202;28;20499;-70
2023/12/13 01:48:51;;;;;;;228.98;50.20;;;;;;;1.58;100.00;100084.78;4981014;28;20045;-70
2023/12/13 01:51:17;;;;;;;136.63;45.42;;;;;;;1.26;100.00;100055.25;4964072;28;20026;-70
2023/12/13 01:53:43;;;;;;;115.50;40.08;;;;;;;1.75;100.00;100135.88;4962922;28;20059;-71
2023/12/13 01:56:10;;;;;;;165.95;45.78;;;;;;;1.12;100.00;100081.78;4970342;28;20038;-70
2023/12/13 01:58:37;;;;;;;119.88;40.20;;;;;;;1.73;100.00;100202.69;4981798;28;20496;-70
2023/12/13 02:01:03;;;;;;;91.07;37.65;;;;;;;1.72;100.00;100213.50;4984514;28;20493;-70
2023/12/13 02:03:30;;;;;;;59.20;34.25;;;;;;;1.52;100.00;100201.59;4980299;28;20575;-70
2023/12/13 02:05:56;;;;;;;376.73;46.28;;;;;;;1.45;100.00;100243.25;4985119;28;20042;-72
2023/12/13 02:08:22;;;;;;;410.38;46.72;;;;;;;1.66;100.00;100351.22;4964409;28;20035;-70
2023/12/13 02:10:49;;;;;;;349.38;46.30;;;;;;;1.48;100.00;100361.00;4981294;28;20573;-70
2023/12/13 02:13:15;;;;;;;97.45;34.28;;;;;;;1.45;100.00;100386.00;4983969;28;20045;-70
2023/12/13 02:15:42;;;;;;;106.45;38.47;;;;;;;1.27;100.00;100433.28;4983404;28;20030;-70
2023/12/13 02:18:09;;;;;;;155.70;37.30;;;;;;;1.14;100.00;100443.06;4976315;28;20046;-70
2023/12/13 02:20:34;;;;;;;206.25;41.33;;;;;;;1.64;100.00;100613.41;4962652;28;20386;-71
2023/12/13 02:23:00;;;;;;;151.73;38.95;;;;;;;1.54;100.00;100623.25;4979543;28;20053;-69
2023/12/13 02:25:35;;;;;;;79.57;34.90;;;;;;;1.68;100.00;100715.38;4964865;28;20034;-70
2023/12/13 02:28:02;;;;;;;92.35;35.88;;;;;;;1.12;100.00;100608.25;4979747;28;20058;-70
2023/12/13 02:30:28;;;;;;;83.40;34.60;;;;;;;1.78;100.00;100782.38;4978341;28;20512;-71
2023/12/13 02:32:54;;;;;;;93.25;39.03;;;;;;;1.35;100.00;100731.38;4967489;28;20054;-70
2023/12/13 02:35:21;;;;;;;72.00;39.03;;;;;;;1.34;100.00;100735.56;4983082;28;20034;-70
2023/12/13 02:37:49;;;;;;;64.38;33.38;;;;;;;0.94;100.00;100645.41;4979171;28;20413;-70
2023/12/13 02:40:18;;;;;;;53.40;32.42;;;;;;;0.62;100.00;100629.69;4964171;28;20516;-70
2023/12/13 02:42:44;;;;;;;110.65;35.05;;;;;;;1.42;100.00;100889.34;4982229;28;20037;-72
2023/12/13 02:45:13;;;;;;;79.63;35.08;;;;;;;1.29;100.00;101055.13;4965714;28;20031;-70
2023/12/13 02:47:42;;;;;;;142.93;38.92;;;;;;;1.15;100.00;101159.06;4964986;28;20093;-70
2023/12/13 02:50:11;;;;;;;166.10;39.08;;;;;;;1.62;100.00;101311.56;4986543;28;20523;-70
2023/12/13 02:52:41;;;;;;;93.55;32.25;;;;;;;1.34;100.00;101281.50;4977435;28;20412;-70
2023/12/13 02:55:09;;;;;;;60.00;29.90;;;;;;;1.69;100.00;101428.72;4980176;28;20030;-70
2023/12/13 02:57:35;;;;;;;121.88;32.20;;;;;;;1.59;100.00;101440.91;4980839;28;20034;-70
2023/12/13 03:00:02;;;;;;;140.27;31.58;;;;;;;0.96;100.00;101323.66;4966297;28;20081;-70
2023/12/13 03:02:27;;;;;;;65.38;30.10;;;;;;;1.75;100.00;101501.59;4983543;28;20031;-70
2023/12/13 03:04:53;;;;;;;63.85;34.83;;;;;;;1.76;100.00;101577.66;4964007;28;20488;-70
2023/12/13 03:07:19;;;;;;;71.18;33.28;;;;;;;1.54;100.00;101576.09;4982678;28;20037;-68
2023/12/13 03:09:44;;;;;;;95.45;34.53;;;;;;;1.23;100.00;101502.34;4963057;28;20038;-70
2023/12/13 03:12:10;;;;;;;86.15;31.92;;;;;;;0.89;100.00;101415.25;4979166;28;20517;-72
2023/12/13 03:14:36;;;;;;;81.22;33.38;;;;;;;0.98;100.00;101448.06;4985677;28;20034;-68
2023/12/13 03:17:01;;;;;;;70.47;32.40;;;;;;;1.23;100.00;101559.97;4964701;28;20049;-69
2023/12/13 03:19:27;;;;;;;52.80;30.67;;;;;;;1.53;100.00;101633.66;4977735;28;20038;-68
2023/12/13 03:21:52;;;;;;;63.65;32.17;;;;;;;0.97;100.00;101580.69;4984413;28;20485;-69
2023/12/13 03:24:18;;;;;;;175.77;38.65;;;;;;;1.11;100.00;101622.94;4976605;28;20029;-69
2023/12/13 03:26:43;;;;;;;53.10;30.15;;;;;;;1.70;100.00;101758.75;4981491;28;20034;-68
2023/12/13 03:29:09;;;;;;;96.28;35.03;;;;;;;0.72;100.00;101569.78;4979882;28;20424;-70
2023/12/13 03:31:35;;;;;;;244.90;39.40;;;;;;;0.72;100.00;101564.78;4980771;28;20030;-68
2023/12/13 03:34:03;;;;;;;142.65;41.15;;;;;;;1.02;100.00;101581.72;4979216;28;20035;-71
2023/12/13 03:36:28;;;;;;;139.27;39.13;;;;;;;1.12;100.00;101567.09;4963398;28;20576;-68
2023/12/13 03:38:54;;;;;;;70.75;34.15;;;;;;;1.28;100.00;101606.91;4980541;28;20109;-69
2023/12/13 03:41:20;;;;;;;101.40;36.38;;;;;;;1.28;100.00;101682.03;4963304;28;20038;-68
2023/12/13 03:43:45;;;;;;;89.43;35.58;;;;;;;1.28;100.00;101694.56;4976882;28;21095;-67
2023/12/13 03:46:11;;;;;;;88.80;35.17;;;;;;;1.44;100.00;101753.59;4966265;28;20045;-72
2023/12/13 03:48:37;;;;;;;153.05;36.90;;;;;;;1.05;100.00;101750.41;4984053;28;20026;-72
2023/12/13 03:51:04;;;;;;;74.10;31.48;;;;;;;1.18;100.00;101795.19;4981986;28;20096;-70
2023/12/13 03:53:30;;;;;;;174.82;37.60;;;;;;;1.26;100.00;101816.38;4984103;28;20093;-71
2023/12/13 03:55:55;;;;;;;102.28;35.20;;;;;;;0.82;100.00;101751.16;4981346;28;20030;-71
2023/12/13 03:58:21;;;;;;;60.92;33.72;;;;;;;1.34;100.00;101882.66;4978555;28;20031;-71
2023/12/13 04:00:46;;;;;;;49.20;29.65;;;;;;;1.50;100.00;101932.56;4975956;28;20047;-71
2023/12/13 04:03:12;;;;;;;47.58;29.58;;;;;;;1.47;100.00;101929.94;4979562;28;20057;-71
2023/12/13 04:05:37;;;;;;;49.25;30.05;;;;;;;1.91;100.00;102044.50;4980545;28;20456;-69
2023/12/13 04:08:03;;;;;;;49.60;30.38;;;;;;;1.99;100.00;102062.34;4962608;28;20034;-70
2023/12/13 04:10:29;;;;;;;48.13;31.58;;;;;;;1.14;100.00;101882.63;4979834;28;20038;-72
2023/12/13 04:12:54;;;;;;;49.47;31.42;;;;;;;1.38;100.00;101912.03;4976877;28;20085;-71
2023/12/13 04:15:20;;;;;;;49.55;30.83;;;;;;;1.47;100.00;101914.91;4977984;28;20427;-71
2023/12/13 04:17:45;;;;;;;44.90;30.10;;;;;;;1.39;100.00;101885.31;4983912;28;20042;-71
2023/12/13 04:20:11;;;;;;;50.63;31.63;;;;;;;1.37;100.00;101867.72;4958273;28;20058;-70
2023/12/13 04:22:39;;;;;;;57.67;33.22;;;;;;;1.77;100.00;101927.78;4959983;28;20106;-72
2023/12/13 04:25:05;;;;;;;71.78;34.15;;;;;;;1.48;100.00;101864.00;4982437;28;20423;-71
2023/12/13 04:27:30;;;;;;;136.38;39.25;;;;;;;1.85;100.00;101950.63;4978015;28;20122;-71
2023/12/13 04:29:56;;;;;;;98.57;37.97;;;;;;;1.19;100.00;101773.50;4977204;28;20497;-72
2023/12/13 04:32:21;;;;;;;208.98;38.15;;;;;;;1.48;100.00;101781.31;4962521;28;20046;-71
2023/12/13 04:34:47;;;;;;;140.27;38.28;;;;;;;3.96;100.00;102224.78;4981887;28;20042;-71
2023/12/13 04:37:12;;;;;;;218.88;47.00;;;;;;;1.71;100.00;101991.06;4974140;28;20035;-72
2023/12/13 04:39:38;;;;;;;226.90;42.08;;;;;;;1.45;100.00;102000.81;4981499;28;20034;-73
2023/12/13 04:42:03;;;;;;;165.57;37.95;;;;;;;1.52;100.00;102028.72;4979678;28;20496;-71
2023/12/13 04:44:30;;;;;;;225.18;40.97;;;;;;;1.18;100.00;102064.78;4980956;28;20393;-70
2023/12/13 04:46:59;;;;;;;79.28;35.95;;;;;;;2.06;100.00;102297.59;4980307;28;20038;-71
2023/12/13 04:49:25;;;;;;;129.25;37.70;;;;;;;1.39;100.00;102254.47;4982439;28;20045;-71
2023/12/13 04:51:51;;;;;;;80.00;32.63;;;;;;;1.68;100.00;102291.72;4982787;28;20034;-71
2023/12/13 04:54:16;;;;;;;99.20;37.60;;;;;;;1.50;100.00;102227.38;4981355;28;20035;-74
2023/12/13 04:56:43;;;;;;;80.45;36.42;;;;;;;1.42;100.00;102323.91;4983934;28;20026;-71
2023/12/13 04:59:08;;;;;;;67.38;34.22;;;;;;;1.54;100.00;102350.41;4981414;28;20106;-71
2023/12/13 05:01:34;;;;;;;59.53;33.25;;;;;;;1.61;100.00;102351.53;4986830;28;20526;-72
2023/12/13 05:03:59;;;;;;;56.25;30.10;;;;;;;1.22;100.00;102287.03;4962683;28;20027;-73
2023/12/13 05:06:25;;;;;;;52.03;29.38;;;;;;;1.37;100.00;102323.69;4981814;28;20031;-71
2023/12/13 05:08:51;;;;;;;49.53;26.75;;;;;;;1.04;100.00;102269.50;4982688;28;20054;-72
2023/12/13 05:11:16;;;;;;;41.20;26.40;;;;;;;1.51;100.00;102329.31;4986724;28;20077;-72
2023/12/13 05:13:42;;;;;;;49.55;26.85;;;;;;;1.35;100.00;102336.91;4969146;28;20058;-71
2023/12/13 05:16:08;;;;;;;40.17;24.67;;;;;;;1.39;100.00;102339.66;4987288;28;20050;-71
2023/12/13 05:18:34;;;;;;;42.17;25.98;;;;;;;1.51;100.00;102375.31;4970343;28;20030;-72
2023/12/13 05:21:01;;;;;;;47.97;28.33;;;;;;;1.11;100.00;102316.56;4966449;28;20038;-73
2023/12/13 05:23:27;;;;;;;47.88;28.48;;;;;;;1.63;100.00;102395.94;4985119;28;20472;-71
2023/12/13 05:25:53;;;;;;;45.80;27.65;;;;;;;1.50;100.00;102386.13;4965200;28;20057;-73
2023/12/13 05:28:18;;;;;;;48.72;27.95;;;;;;;1.12;100.00;102289.91;4987051;28;20061;-72
2023/12/13 05:30:44;;;;;;;49.88;28.95;;;;;;;1.17;100.00;102301.84;4985364;28;20031;-73
2023/12/13 05:33:09;;;;;;;52.05;30.77;;;;;;;1.39;100.00;102333.78;4970552;28;20121;-74
2023/12/13 05:35:35;;;;;;;55.20;31.00;;;;;;;1.49;100.00;102411.97;4966868;28;20034;-75
2023/12/13 05:38:01;;;;;;;54.17;30.23;;;;;;;1.61;100.00;102472.72;4985583;28;20046;-72
2023/12/13 05:40:26;;;;;;;54.15;30.38;;;;;;;1.28;100.00;102339.94;4983743;28;20033;-72
2023/12/13 05:42:52;;;;;;;58.70;30.48;;;;;;;1.49;100.00;102345.94;4984971;28;20030;-71
2023/12/13 05:45:17;;;;;;;59.50;32.65;;;;;;;1.67;100.00;102387.78;4970842;28;20034;-72
2023/12/13 05:47:43;;;;;;;66.50;36.08;;;;;;;1.24;100.00;102311.38;4967811;28;20112;-70
2023/12/13 05:50:08;;;;;;;77.85;36.22;;;;;;;1.11;100.00;102266.50;4967067;28;20504;-70
2023/12/13 05:52:35;;;;;;;68.15;34.13;;;;;;;1.36;100.00;102266.00;4965670;28;20034;-70
2023/12/13 05:55:00;;;;;;;60.35;32.25;;;;;;;1.46;100.00;102340.81;4961724;28;20043;-69
2023/12/13 05:57:26;;;;;;;67.03;33.58;;;;;;;1.46;100.00;102386.78;4982083;28;20033;-71
2023/12/13 05:59:51;;;;;;;59.45;30.40;;;;;;;1.28;100.00;102343.31;4980854;28;20114;-72
2023/12/13 06:02:17;;;;;;;57.60;30.33;;;;;;;1.46;100.00;102388.41;4965344;28;20089;-71
2023/12/13 06:04:43;;;;;;;63.28;31.67;;;;;;;1.04;100.00;102352.13;4963848;28;20034;-71
2023/12/13 06:07:11;;;;;;;62.03;30.70;;;;;;;0.95;100.00;102286.59;4967217;28;20038;-71
2023/12/13 06:09:37;;;;;;;61.60;32.10;;;;;;;1.27;100.00;102369.13;4979648;28;20113;-71
2023/12/13 06:12:05;;;;;;;61.75;31.40;;;;;;;1.21;100.00;102388.03;4982977;28;20129;-72
2023/12/13 06:14:30;;;;;;;58.58;32.20;;;;;;;1.66;100.00;102516.38;4978767;28;20436;-69
2023/12/13 06:16:56;;;;;;;56.45;32.63;;;;;;;1.18;100.00;102428.81;4962260;28;20041;-69
2023/12/13 06:19:21;;;;;;;61.28;32.65;;;;;;;0.78;100.00;102385.03;4982247;28;20034;-72
2023/12/13 06:21:47;;;;;;;64.38;33.45;;;;;;;1.64;100.00;102540.50;4986986;28;20037;-73
2023/12/13 06:24:12;;;;;;;75.70;35.85;;;;;;;2.02;100.00;102669.47;4982753;28;20030;-70
2023/12/13 06:26:38;;;;;;;70.15;35.00;;;;;;;1.93;100.00;102662.34;4962772;28;20035;-72
2023/12/13 06:29:04;;;;;;;61.58;33.22;;;;;;;1.59;100.00;102612.13;4985948;28;20078;-70
2023/12/13 06:31:29;;;;;;;62.75;33.78;;;;;;;1.50;100.00;102586.63;4976728;28;20045;-71
2023/12/13 06:33:55;;;;;;;60.67;33.00;;;;;;;2.05;100.00;102662.94;4976543;28;20039;-69
2023/12/13 06:36:20;;;;;;;72.18;34.15;;;;;;;1.80;100.00;102644.09;4964035;28;20034;-71
2023/12/13 06:38:46;;;;;;;67.65;38.67;;;;;;;2.14;100.00;102777.97;4980507;28;20117;-70
2023/12/13 06:41:12;;;;;;;61.13;34.05;;;;;;;2.35;100.00;102830.09;4964173;28;20038;-69
2023/12/13 06:43:37;;;;;;;62.78;35.22;;;;;;;2.72;100.00;102852.03;4982679;28;20045;-73
2023/12/13 06:46:03;;;;;;;52.83;32.67;;;;;;;2.83;100.00;102866.88;4961600;28;20062;-72
2023/12/13 06:48:29;;;;;;;61.50;35.97;;;;;;;2.09;100.00;102689.03;4982967;28;20180;-69
2023/12/13 06:50:55;;;;;;;76.60;45.55;;;;;;;2.98;100.00;102856.69;4967151;28;20026;-69
2023/12/13 06:53:21;;;;;;;96.32;59.30;;;;;;;2.89;100.00;102851.22;4961086;28;20397;-69
2023/12/13 06:55:47;;;;;;;108.07;62.80;;;;;;;2.91;100.00;102862.22;4963145;28;20523;-69
2023/12/13 06:58:13;;;;;;;73.72;46.05;;;;;;;2.89;100.00;102862.16;4961182;28;20074;-69
2023/12/13 07:00:39;;;;;;;75.18;46.72;;;;;;;3.61;100.00;102982.16;4976512;28;20042;-69
2023/12/13 07:03:04;;;;;;;60.33;33.90;;;;;;;3.23;100.00;102860.47;4968628;28;20034;-69
2023/12/13 07:05:29;;;;;;;61.15;34.20;;;;;;;3.59;100.00;102981.22;4963034;28;20066;-69
2023/12/13 07:07:55;;;;;;;69.35;36.55;;;;;;;3.32;100.00;102898.63;4982537;28;20172;-70
2023/12/13 07:10:21;;;;;;;59.72;35.33;;;;;;;3.23;100.00;102895.66;4985734;28;20513;-69
2023/12/13 07:12:47;;;;;;;59.45;34.70;;;;;;;4.18;100.00;103128.44;4979678;28;20031;-70
2023/12/13 07:15:14;;;;;;;64.20;36.88;;;;;;;4.28;100.00;103131.47;4959280;28;20022;-73
2023/12/13 07:17:45;;;;;;;62.70;36.38;;;;;;;3.61;100.00;102979.63;4976341;28;20027;-69
2023/12/13 07:20:11;;;;;;;60.33;35.92;;;;;;;4.06;100.00;103010.38;4960885;28;20045;-72
2023/12/13 07:22:37;;;;;;;59.30;34.30;;;;;;;4.07;100.00;103044.84;4976271;28;20043;-69
2023/12/13 07:25:06;;;;;;;57.15;38.33;;;;;;;4.07;100.00;103022.19;4980631;28;20429;-70
2023/12/13 07:27:32;;;;;;;79.93;44.30;;;;;;;4.28;100.00;103035.78;4984403;28;20105;-69
2023/12/13 07:29:58;;;;;;;74.65;41.88;;;;;;;4.05;100.00;102935.66;4960741;28;20424;-69
2023/12/13 07:32:23;;;;;;;64.40;37.75;;;;;;;4.30;100.00;102942.66;4963503;28;20042;-71
2023/12/13 07:34:49;;;;;;;67.57;37.40;;;;;;;4.11;100.00;102841.94;4962255;28;20117;-69
2023/12/13 07:37:14;;;;;;;52.58;33.00;;;;;;;4.20;100.00;102837.31;4979822;28;20038;-69
2023/12/13 07:39:40;;;;;;;51.53;32.13;;;;;;;4.05;100.00;102796.38;4963362;28;20034;-69
2023/12/13 07:42:06;;;;;;;59.38;37.10;;;;;;;4.28;100.00;102848.59;4981256;28;20564;-69
2023/12/13 07:44:33;;;;;;;56.72;34.33;;;;;;;3.77;100.00;102722.97;4982500;28;20562;-69
2023/12/13 07:46:59;;;;;;;54.92;33.10;;;;;;;4.14;100.00;102796.78;4962058;28;20030;-69
2023/12/13 07:49:28;;;;;;;50.88;32.25;;;;;;;3.84;100.00;102737.56;4978014;28;20034;-69
2023/12/13 07:51:55;;;;;;;50.53;31.10;;;;;;;3.94;100.00;102720.41;4965459;28;20041;-70
2023/12/13 07:54:21;;;;;;;53.83;33.22;;;;;;;3.70;100.00;102688.31;4982538;28;20097;-69
2023/12/13 07:56:49;;;;;;;53.88;33.67;;;;;;;3.98;100.00;102713.88;4962146;28;20030;-72
2023/12/13 07:59:15;;;;;;;50.92;31.90;;;;;;;3.61;100.00;102642.63;4961032;28;20027;-69
2023/12/13 08:01:41;;;;;;;52.42;32.67;;;;;;;3.21;100.00;102573.00;4976151;28;20121;-68
2023/12/13 08:04:07;;;;;;;54.85;34.58;;;;;;;3.51;100.00;102632.19;4978627;28;20104;-69
2023/12/13 08:06:33;;;;;;;52.80;32.05;;;;;;;3.95;100.00;102706.16;4982216;28;20030;-69
2023/12/13 08:08:58;;;;;;;53.40;32.03;;;;;;;3.45;100.00;102611.78;4978709;28;20153;-69
2023/12/13 08:11:24;;;;;;;57.25;35.17;;;;;;;3.79;100.00;102671.94;4979100;28;20119;-70
2023/12/13 08:13:49;;;;;;;60.30;35.38;;;;;;;4.18;100.00;102781.03;4978846;28;20062;-69
2023/12/13 08:16:15;;;;;;;58.95;33.40;;;;;;;4.24;100.00;102788.81;4975475;28;20078;-70
2023/12/13 08:18:41;;;;;;;60.72;34.25;;;;;;;4.40;100.00;102829.84;4960060;28;20030;-70
2023/12/13 08:21:07;;;;;;;58.00;35.13;;;;;;;4.01;100.00;102756.75;4960808;28;20031;-73
2023/12/13 08:23:33;;;;;;;56.03;31.10;;;;;;;4.24;100.00;102774.56;4963941;28;20026;-70
2023/12/13 08:25:59;;;;;;;59.30;33.88;;;;;;;3.86;100.00;102701.63;4964621;28;21585;-71
2023/12/13 08:28:24;;;;;;;61.20;35.13;;;;;;;4.39;100.00;102799.56;4961261;28;20054;-70
2023/12/13 08:30:50;;;;;;;52.75;32.25;;;;;;;4.38;100.00;102785.22;4963824;28;20042;-71
2023/12/13 08:33:15;;;;;;;59.70;32.13;;;;;;;4.54;100.00;102772.50;4982812;28;20500;-70
2023/12/13 08:35:41;;;;;;;55.42;33.10;;;;;;;4.55;100.00;102779.25;4980838;28;20069;-70
2023/12/13 08:38:06;;;;;;;58.17;32.78;;;;;;;5.02;100.00;102789.63;4976712;28;20085;-70
2023/12/13 08:40:32;;;;;;;60.22;35.33;;;;;;;4.71;100.00;102753.03;4962408;28;20031;-70
2023/12/13 08:42:57;;;;;;;62.25;37.05;;;;;;;5.14;100.00;102792.63;4978180;28;20049;-70
2023/12/13 08:45:23;;;;;;;76.30;48.03;;;;;;;5.22;100.00;102798.81;4977428;28;20064;-70
2023/12/13 08:47:48;;;;;;;55.20;35.67;;;;;;;4.72;100.00;102661.53;4962851;28;20038;-70
2023/12/13 08:50:14;;;;;;;56.15;36.30;;;;;;;5.09;100.00;102726.00;4961100;28;20107;-70
2023/12/13 08:52:40;;;;;;;58.78;35.88;;;;;;;5.15;100.00;102721.22;4973844;28;20057;-70
2023/12/13 08:55:10;;;;;;;53.83;34.00;;;;;;;5.44;100.00;102744.16;4981281;28;20419;-72
2023/12/13 08:57:36;;;;;;;58.17;36.30;;;;;;;5.73;100.00;102779.75;4979228;28;20033;-70
2023/12/13 09:00:01;;;;;;;58.03;36.90;;;;;;;5.62;100.00;102714.56;4979997;28;20113;-72
2023/12/13 09:02:27;;;;;;;52.75;33.25;;;;;;;5.80;100.00;102715.22;4979523;28;20034;-69
2023/12/13 09:04:52;;;;;;;45.25;28.95;;;;;;;5.90;100.00;102674.38;4963172;28;20030;-70
2023/12/13 09:07:18;;;;;;;48.60;29.95;;;;;;;5.98;100.00;102615.75;4963077;28;20031;-71
2023/12/13 09:09:44;;;;;;;51.85;30.65;;;;;;;6.09;100.00;102583.28;4980042;28;20468;-72
2023/12/13 09:12:09;;;;;;;46.67;28.40;;;;;;;5.51;100.00;102420.66;4977013;28;20038;-70
2023/12/13 09:14:35;;;;;;;47.55;29.30;;;;;;;6.26;100.00;102521.53;4980993;28;20046;-70
2023/12/13 09:17:01;;;;;;;54.30;32.83;;;;;;;6.47;100.00;102508.69;4964218;28;20092;-70
2023/12/13 09:19:27;;;;;;;53.83;33.55;;;;;;;6.37;100.00;102446.94;4982407;28;20467;-70
2023/12/13 09:21:52;;;;;;;47.40;30.05;;;;;;;6.48;100.00;102387.44;4962322;28;20080;-70
2023/12/13 09:24:18;;;;;;;51.25;32.45;;;;;;;7.04;100.00;102472.41;4979155;28;20035;-69
2023/12/13 09:26:44;;;;;;;50.30;30.05;;;;;;;6.48;100.00;102310.78;4958691;28;20030;-75
2023/12/13 09:29:10;;;;;;;45.92;30.30;;;;;;;7.03;100.00;102360.25;4962079;28;20043;-70
2023/12/13 09:31:36;;;;;;;44.50;29.67;;;;;;;6.89;100.00;102260.47;4963707;28;20109;-71
2023/12/13 09:34:02;;;;;;;46.90;30.35;;;;;;;6.71;100.00;102151.34;4979446;28;20039;-70
2023/12/13 09:36:27;;;;;;;47.35;27.88;;;;;;;6.90;100.00;102133.25;4979373;28;20029;-70
2023/12/13 09:38:53;;;;;;;44.75;30.20;;;;;;;6.99;100.00;102104.78;4961451;28;20042;-70
2023/12/13 09:41:27;;;;;;;43.88;27.65;;;;;;;7.25;100.00;102112.91;4961652;28;20035;-72
2023/12/13 09:43:57;;;;;;;41.85;27.83;;;;;;;7.56;100.00;102110.13;4978166;28;20477;-70
2023/12/13 09:46:24;;;;;;;51.75;32.58;;;;;;;7.51;100.00;102025.66;4961864;28;20030;-70
2023/12/13 09:48:50;;;;;;;47.70;31.30;;;;;;;7.38;100.00;101927.59;4961910;28;20026;-70
2023/12/13 09:51:19;;;;;;;46.20;30.35;;;;;;;7.32;100.00;101846.56;4975358;28;20105;-71
2023/12/13 09:53:49;;;;;;;45.28;29.90;;;;;;;7.50;100.00;101792.03;4956451;28;20034;-70
2023/12/13 09:56:15;;;;;;;60.47;37.15;;;;;;;7.57;100.00;101785.34;4978965;28;20022;-71
2023/12/13 09:58:40;;;;;;;49.75;30.95;;;;;;;7.28;100.00;101685.44;4965263;28;20038;-71
2023/12/13 10:01:12;;;;;;;45.13;29.90;;;;;;;7.34;100.00;101623.13;4980272;28;20022;-71
2023/12/13 10:03:41;;;;;;;;;;;;;;;7.78;100.00;101656.53;4979307;28;20053;-72
2023/12/13 10:06:08;;;;;;;42.45;28.80;;;;;;;7.84;100.00;101623.69;4968364;28;19922;-71
2023/12/13 10:08:35;;;;;;;45.03;29.73;;;;;;;7.85;100.00;101562.06;4965528;28;20027;-72
2023/12/13 10:11:05;;;;;;;40.75;28.75;;;;;;;7.49;100.00;101447.84;4963315;28;20034;-71
2023/12/13 10:13:31;;;;;;;44.95;29.98;;;;;;;7.83;100.00;101472.59;4965544;28;20053;-71
2023/12/13 10:16:10;;;;;;;44.92;29.50;;;;;;;7.53;100.00;101384.66;4964586;28;20108;-70
2023/12/13 10:18:36;;;;;;;44.15;28.98;;;;;;;7.67;100.00;101370.41;4959036;28;20034;-71
2023/12/13 10:21:03;;;;;;;41.55;27.13;;;;;;;7.64;100.00;101314.72;4960539;28;20176;-71
2023/12/13 10:23:29;;;;;;;39.42;26.45;;;;;;;8.00;100.00;101291.25;4966639;28;20505;-70
2023/12/13 10:25:55;;;;;;;37.63;25.95;;;;;;;7.97;100.00;101267.59;4963206;28;20570;-71
2023/12/13 10:28:21;;;;;;;36.80;25.65;;;;;;;7.90;100.00;101213.59;4964464;28;20133;-71
2023/12/13 10:30:50;;;;;;;38.55;28.42;;;;;;;8.13;100.00;101213.63;4981075;28;20760;-70
2023/12/13 10:33:16;;;;;;;48.03;31.80;;;;;;;8.29;100.00;101183.28;4963349;28;20062;-72
2023/12/13 10:35:41;;;;;;;58.85;38.20;;;;;;;8.18;100.00;101124.13;4982677;28;20065;-71
2023/12/13 10:38:12;;;;;;;52.75;34.78;;;;;;;7.50;100.00;100967.19;4981307;28;20069;-70
2023/12/13 10:40:40;;;;;;;39.37;25.43;;;;;;;8.06;100.00;101016.94;4978680;28;20034;-70
2023/12/13 10:43:10;;;;;;;47.35;32.95;;;;;;;8.16;100.00;100994.13;4961229;28;20270;-70
2023/12/13 10:45:40;;;;;;;63.60;41.50;;;;;;;8.36;100.00;100971.34;4960408;28;20077;-70
2023/12/13 10:48:08;;;;;;;58.22;41.03;;;;;;;8.47;100.00;100952.72;4964478;28;20110;-70
2023/12/13 10:50:38;;;;;;;56.28;35.97;;;;;;;8.54;100.00;100920.56;4982049;28;20513;-73
2023/12/13 10:53:04;;;;;;;57.45;35.80;;;;;;;8.49;100.00;100869.94;4959542;28;20066;-73
2023/12/13 10:55:30;;;;;;;49.67;33.83;;;;;;;8.76;100.00;100856.22;4967524;28;20393;-71
2023/12/13 10:57:56;;;;;;;41.88;27.75;;;;;;;8.61;100.00;100808.19;4975861;28;20031;-70
2023/12/13 11:00:25;;;;;;;40.60;27.33;;;;;;;8.27;100.00;100673.31;4963108;28;20034;-71
2023/12/13 11:03:16;;;;;;;36.35;25.45;;;;;;;8.48;100.00;100655.38;4983334;28;20480;-71
2023/12/13 11:05:42;;;;;;;40.03;25.20;;;;;;;8.60;100.00;100598.69;4966074;28;20047;-71